Aeroporto :
LOGIN :

Iscrizione | Disclaimer

   EN    FR    IT 

 










Sommario :    VFR   VFR Marginale   IFR   IFR Intensivo   IFR Molto Intensivo
Visibilità : 
Base nubi : 
>= 8 km
>= 3000ft
5 / 8 km
1000 / 3000 ft
1500m / 5 km
500 / 1000 ft
800 / 1500m
200 / 500 ft
< 800m
< 200 ft
Simboli :   Temporali  Nebbia  Neve Forte  Precipitazioni Forti  Vento > 20 kt
SIGMETs :   Varie  Temporali  Ghiacco  Turbolenza  Onda orograficha  Ceneri Vulcaniche






- Altitudine del aeroporto : 1058 ft
- Codice IATA : SCN


EDDR - Saarbrücken

ULTIMO METAR :
  • 302250Z 14010KT 3800 -SNRA BR BKN006 M01/M02 Q1020

METARs OBSOLETI :
  • 302220Z 22013KT 3200 -SNRA BR BKN005 M02/M02 Q1020
  • 302150Z 16009KT 3000 -SNRA BR SCT002 BKN005 M02/M02 Q1020
  • 302120Z 15010KT 2200 -SNRA BR SCT002 BKN005 M02/M03 Q1021 REFZRA
  • 302050Z 15008KT 1800 -FZRA BR SCT001 OVC003 M02/M03 Q1021 NOSIG
  • 302020Z 14008KT 110V170 1500 -FZRA BR SCT001 OVC002 M03/M03 Q1022 NOSIG

TAF AMD TAF EDDR
Valido dal 30 a 21 ore il 01 a 18 ore UTC


302131Z 3021/0118 19010KT 3000 -SNRA BKN005
TEMPO 3021/0107 0800 SN OVC001
PROB40
TEMPO 3021/3023 2000 FZRA BKN003
TEMPO 0107/0118 RADZ
BECMG 0116/0118 06005KT



MetMap, La meteo Aeronautica in un colpo d'occhio ! - Copyright ORBIFLY Dicembre 2007 - Disclaimer

ORBIFLY MET'MAP TEAM :

Programmazione e sviluppo : Alexandra Zaïnal
Concezione : Baudouin d'Aumeries
Aiuto per la programmazione : Marc-Olivier Méhu
Supporto tecnico e logistico : Manuel Goepfert
Aiuto per la traduzione : Arnaldo La Scala

Contatto : metmap@orbifly.com




FONTI E CREDITI :

   NOAA